.
WxDataArchive / Data Records for 2010-01-26
2010-01-25 January 2010 2010-01-27

Data Records for Tuesday, 26 January 2010

Time	Temp	Chill	HIndex	Humid	Dewpt	 Wind 	HiWind	WindDir	Rain 	Barom 
-----	----	-----	------	-----	-----	------	------	-------	-----	----- 
00:00	25.3	19.2	25.3	81	20.3	5	11	270	0.00	29.555 
00:05	25.1	19.0	25.1	81	20.1	5	12	270	0.00	29.555 
00:10	25.1	20.1	25.1	81	20.1	4	11	248	0.00	29.555 
00:15	25.0	18.9	25.0	81	20.0	5	16	270	0.00	29.558 
00:20	24.8	19.8	24.8	82	20.1	4	12	248	0.00	29.558 
00:25	24.5	24.5	24.5	84	20.4	3	10	270	0.00	29.558 
00:30	24.4	24.4	24.4	85	20.6	2	10	270	0.00	29.568 
00:35	23.9	23.9	23.9	85	20.1	3	7	270	0.00	29.568 
00:40	23.6	18.4	23.6	82	18.9	4	8	270	0.00	29.568 
00:45	23.5	23.5	23.5	80	18.3	3	5	292	0.00	29.573 
00:50	23.5	23.5	23.5	79	18.0	3	6	248	0.00	29.573 
00:55	23.3	23.3	23.3	78	17.5	3	9	248	0.00	29.573 
01:00	23.2	16.7	23.2	77	17.1	5	13	270	0.00	29.576 
01:05	23.0	23.0	23.0	77	16.9	3	9	270	0.00	29.576 
01:10	23.0	17.7	23.0	77	16.9	4	10	248	0.00	29.576 
01:15	23.0	17.7	23.0	77	16.9	4	10	248	0.00	29.577 
01:20	23.0	23.0	23.0	78	17.2	3	6	270	0.00	29.577 
01:25	22.9	22.9	22.9	79	17.4	3	10	270	0.00	29.577 
01:30	22.9	22.9	22.9	80	17.7	3	10	270	0.00	29.579 
01:35	22.9	22.9	22.9	80	17.7	3	7	248	0.00	29.579 
01:40	22.9	22.9	22.9	80	17.7	3	12	248	0.00	29.579 
01:45	23.0	23.0	23.0	79	17.5	3	7	270	0.00	29.584 
01:50	23.2	23.2	23.2	78	17.4	3	6	248	0.00	29.584 
01:55	23.3	23.3	23.3	78	17.5	3	9	248	0.00	29.584 
02:00	23.3	23.3	23.3	78	17.5	3	6	248	0.00	29.586 
02:05	23.3	23.3	23.3	79	17.8	3	10	270	0.00	29.586 
02:10	23.2	23.2	23.2	80	18.0	3	7	248	0.00	29.586 
02:15	23.0	23.0	23.0	81	18.1	3	7	248	0.00	29.592 
02:20	23.0	23.0	23.0	82	18.3	2	7	248	0.00	29.592 
02:25	22.9	22.9	22.9	82	18.2	2	4	248	0.00	29.592 
02:30	22.9	22.9	22.9	83	18.5	2	7	270	0.00	29.597 
02:35	22.7	22.7	22.7	84	18.6	3	10	270	0.00	29.597 
02:40	22.2	14.6	22.2	82	17.6	6	14	270	0.00	29.597 
02:45	21.8	15.1	21.8	81	16.9	5	13	270	0.00	29.607 
02:50	21.4	15.8	21.4	78	15.6	4	12	270	0.00	29.607 
02:55	21.3	21.3	21.3	75	14.6	3	9	270	0.00	29.607 
03:00	21.1	15.5	21.1	73	13.8	4	9	270	0.00	29.614 
03:05	21.0	15.4	21.0	72	13.4	4	11	248	0.00	29.614 
03:10	21.1	14.3	21.1	71	13.2	5	12	270	0.00	29.614 
03:15	21.0	14.2	21.0	70	12.8	5	10	270	0.00	29.621 
03:20	21.0	15.4	21.0	71	13.1	4	14	270	0.00	29.621 
03:25	20.8	15.1	20.8	71	12.9	4	12	248	0.00	29.621 
03:30	20.6	14.9	20.6	71	12.7	4	12	270	0.00	29.627 
03:35	20.5	20.5	20.5	72	12.9	3	8	225	0.00	29.627 
03:40	20.3	20.3	20.3	72	12.7	3	7	248	0.00	29.627 
03:45	20.3	20.3	20.3	72	12.7	2	6	248	0.00	29.631 
03:50	20.3	20.3	20.3	72	12.7	3	10	270	0.00	29.631 
03:55	20.2	20.2	20.2	71	12.3	3	10	270	0.00	29.631 
04:00	20.2	20.2	20.2	69	11.7	3	6	248	0.00	29.638 
04:05	20.2	20.2	20.2	69	11.7	3	6	248	0.00	29.638 
04:10	20.2	13.2	20.2	67	11.0	5	13	270	0.00	29.638 
04:15	20.2	13.2	20.2	67	11.0	5	11	248	0.00	29.647 
04:20	20.0	14.2	20.0	67	10.8	4	12	270	0.00	29.647 
04:25	19.9	14.1	19.9	68	11.1	4	11	270	0.00	29.647 
04:30	19.7	13.9	19.7	68	10.9	4	10	248	0.00	29.654 
04:35	19.7	13.9	19.7	69	11.2	4	12	248	0.00	29.654 
04:40	19.5	19.5	19.5	68	10.7	3	10	292	0.00	29.654 
04:45	19.4	19.4	19.4	68	10.6	3	7	248	0.00	29.656 
04:50	19.4	13.5	19.4	68	10.6	4	11	248	0.00	29.656 
04:55	19.4	13.5	19.4	67	10.3	4	10	270	0.00	29.656 
05:00	19.4	12.3	19.4	67	10.3	5	13	270	0.00	29.662 
05:05	19.4	13.5	19.4	67	10.3	4	9	270	0.00	29.662 
05:10	19.4	19.4	19.4	67	10.3	3	9	270	0.00	29.662 
05:15	19.2	13.3	19.2	69	10.7	4	9	270	0.00	29.671 
05:20	19.2	13.3	19.2	69	10.7	4	6	270	0.00	29.671 
05:25	19.1	13.2	19.1	69	10.6	4	11	270	0.00	29.671 
05:30	19.1	13.2	19.1	69	10.6	4	9	270	0.00	29.675 
05:35	18.9	12.9	18.9	69	10.4	4	10	270	0.00	29.675 
05:40	18.9	12.9	18.9	69	10.4	4	10	248	0.00	29.675 
05:45	18.9	11.7	18.9	69	10.4	5	13	270	0.00	29.677 
05:50	18.9	12.9	18.9	70	10.8	4	11	270	0.00	29.677 
05:55	18.9	12.9	18.9	70	10.8	4	13	270	0.00	29.677 
06:00	18.9	12.9	18.9	70	10.8	4	12	270	0.00	29.688 
06:05	18.9	18.9	18.9	70	10.8	3	9	270	0.00	29.688 
06:10	18.9	18.9	18.9	71	11.1	3	8	270	0.00	29.688 
06:15	18.9	18.9	18.9	70	10.8	3	12	270	0.00	29.695 
06:20	18.9	18.9	18.9	71	11.1	3	10	248	0.00	29.695 
06:25	18.9	18.9	18.9	70	10.8	3	12	270	0.00	29.695 
06:30	18.9	18.9	18.9	70	10.8	3	6	248	0.00	29.707 
06:35	18.9	18.9	18.9	70	10.8	3	7	270	0.00	29.707 
06:40	18.9	18.9	18.9	70	10.8	3	6	270	0.00	29.707 
06:45	18.9	12.9	18.9	70	10.8	4	11	270	0.00	29.714 
06:50	19.1	19.1	19.1	71	11.3	3	6	270	0.00	29.714 
06:55	19.1	19.1	19.1	73	11.9	1	3	292	0.00	29.714 
07:00	19.1	19.1	19.1	74	12.2	3	5	248	0.00	29.722 
07:05	18.9	18.9	18.9	75	12.3	2	6	248	0.00	29.722 
07:10	18.8	18.8	18.8	76	12.5	2	6	248	0.00	29.722 
07:15	18.8	18.8	18.8	76	12.5	2	4	248	0.00	29.727 
07:20	18.8	18.8	18.8	75	12.2	2	6	248	0.00	29.727 
07:25	18.9	18.9	18.9	75	12.3	3	11	248	0.00	29.727 
07:30	18.9	18.9	18.9	74	12.0	2	5	248	0.00	29.739 
07:35	18.9	18.9	18.9	74	12.0	2	7	248	0.00	29.739 
07:40	18.9	18.9	18.9	74	12.0	2	7	248	0.00	29.739 
07:45	18.9	18.9	18.9	74	12.0	3	7	248	0.00	29.745 
07:50	18.9	18.9	18.9	74	12.0	3	10	248	0.00	29.745 
07:55	18.9	18.9	18.9	75	12.3	3	7	248	0.00	29.745 
08:00	18.9	18.9	18.9	76	12.6	2	5	248	0.00	29.755 
08:05	18.8	18.8	18.8	77	12.8	2	6	248	0.00	29.755 
08:10	18.6	18.6	18.6	78	12.9	2	6	248	0.00	29.755 
08:15	18.6	18.6	18.6	78	12.9	3	10	248	0.00	29.770 
08:20	18.4	18.4	18.4	78	12.7	3	8	248	0.00	29.770 
08:25	18.6	18.6	18.6	79	13.2	3	9	248	0.00	29.770 
08:30	18.4	18.4	18.4	79	13.0	3	9	270	0.00	29.775 
08:35	18.4	18.4	18.4	79	13.0	3	8	248	0.00	29.775 
08:40	18.4	18.4	18.4	78	12.7	3	6	270	0.00	29.775 
08:45	18.4	18.4	18.4	77	12.4	3	7	270	0.00	29.789 
08:50	18.4	18.4	18.4	77	12.4	3	10	270	0.00	29.789 
08:55	18.6	18.6	18.6	76	12.3	3	4	270	0.00	29.789 
09:00	18.6	18.6	18.6	76	12.3	3	11	248	0.00	29.799 
09:05	18.6	18.6	18.6	75	12.0	3	7	270	0.00	29.799 
09:10	18.8	18.8	18.8	75	12.2	2	5	248	0.00	29.799 
09:15	18.8	18.8	18.8	75	12.2	2	9	248	0.00	29.805 
09:20	18.9	18.9	18.9	74	12.0	3	6	248	0.00	29.805 
09:25	18.9	18.9	18.9	74	12.0	3	6	270	0.00	29.805 
09:30	19.1	19.1	19.1	75	12.5	3	7	270	0.00	29.819 
09:35	19.1	19.1	19.1	75	12.5	2	9	248	0.00	29.819 
09:40	19.1	19.1	19.1	74	12.2	3	7	248	0.00	29.819 
09:45	19.1	19.1	19.1	74	12.2	3	7	248	0.00	29.815 
09:50	19.2	19.2	19.2	74	12.3	2	6	270	0.00	29.815 
09:55	19.2	13.3	19.2	74	12.3	4	10	248	0.00	29.815 
10:00	19.4	19.4	19.4	74	12.5	2	6	248	0.00	29.831 
10:05	19.4	13.5	19.4	74	12.5	4	7	270	0.00	29.831 
10:10	19.2	13.3	19.2	75	12.6	4	11	270	0.00	29.831 
10:15	19.2	13.3	19.2	75	12.6	4	7	270	0.00	29.837 
10:20	19.4	19.4	19.4	76	13.1	3	6	248	0.00	29.837 
10:25	19.7	19.7	19.7	76	13.4	3	10	248	0.00	29.837 
10:30	19.7	19.7	19.7	75	13.1	3	7	270	0.00	29.846 
10:35	20.0	20.0	20.0	75	13.4	3	10	225	0.00	29.846 
10:40	20.2	13.2	20.2	74	13.3	5	14	248	0.00	29.846 
10:45	20.3	20.3	20.3	74	13.4	3	13	270	0.00	29.852 
10:50	20.5	14.8	20.5	73	13.2	4	12	270	0.00	29.852 
10:55	20.8	20.8	20.8	74	13.8	3	5	270	0.00	29.852 
11:00	21.0	21.0	21.0	73	13.7	3	7	270	0.00	29.865 
11:05	20.8	15.1	20.8	73	13.5	4	10	270	0.00	29.865 
11:10	20.5	13.6	20.5	73	13.2	5	14	270	0.00	29.865 
11:15	20.6	20.6	20.6	73	13.3	3	10	248	0.00	29.872 
11:20	21.0	21.0	21.0	73	13.7	2	5	248	0.00	29.872 
11:25	20.8	15.1	20.8	73	13.5	4	9	270	0.00	29.872 
11:30	20.8	20.8	20.8	73	13.5	3	6	270	0.00	29.874 
11:35	21.0	21.0	21.0	73	13.7	3	6	270	0.00	29.874 
11:40	21.0	21.0	21.0	72	13.4	3	9	270	0.00	29.874 
11:45	20.6	13.7	20.6	72	13.0	5	10	270	0.00	29.882 
11:50	20.8	15.1	20.8	72	13.2	4	12	292	0.00	29.882 
11:55	20.8	13.9	20.8	71	12.9	5	11	270	0.00	29.882 
12:00	20.6	14.9	20.6	72	13.0	4	12	270	0.00	29.884 
12:05	20.8	15.1	20.8	72	13.2	4	9	270	0.00	29.884 
12:10	20.8	13.9	20.8	71	12.9	5	12	270	0.00	29.884 
12:15	20.8	13.9	20.8	71	12.9	5	10	270	0.00	29.891 
12:20	21.0	15.4	21.0	72	13.4	4	11	248	0.00	29.891 
12:25	21.1	15.5	21.1	72	13.5	4	10	270	0.00	29.891 
12:30	20.8	15.1	20.8	72	13.2	4	11	270	0.00	29.897 
12:35	20.8	15.1	20.8	72	13.2	4	7	270	0.00	29.897 
12:40	21.0	21.0	21.0	73	13.7	3	6	292	0.00	29.897 
12:45	20.8	15.1	20.8	73	13.5	4	7	270	0.00	29.892 
12:50	21.0	21.0	21.0	74	14.0	2	5	225	0.00	29.892 
12:55	21.1	21.1	21.1	74	14.1	3	7	248	0.00	29.892 
13:00	21.0	15.4	21.0	73	13.7	4	10	270	0.00	29.897 
13:05	21.1	21.1	21.1	73	13.8	3	9	270	0.00	29.897 
13:10	21.3	21.3	21.3	73	14.0	3	10	248	0.00	29.897 
13:15	21.1	15.5	21.1	73	13.8	4	11	270	0.00	29.901 
13:20	21.3	21.3	21.3	73	14.0	3	7	248	0.00	29.901 
13:25	21.3	15.7	21.3	73	14.0	4	10	270	0.00	29.901 
13:30	21.1	15.5	21.1	73	13.8	4	10	270	0.00	29.905 
13:35	21.1	15.5	21.1	74	14.1	4	9	270	0.00	29.905 
13:40	21.1	15.5	21.1	74	14.1	4	9	270	0.00	29.905 
13:45	21.3	21.3	21.3	74	14.3	3	5	270	0.00	29.911 
13:50	21.3	15.7	21.3	74	14.3	4	6	270	0.00	29.911 
13:55	21.4	21.4	21.4	74	14.4	2	5	248	0.00	29.911 
14:00	21.6	16.1	21.6	74	14.6	4	7	270	0.00	29.905 
14:05	21.6	16.1	21.6	73	14.3	4	7	270	0.00	29.905 
14:10	21.6	21.6	21.6	74	14.6	3	12	248	0.00	29.905 
14:15	21.6	16.1	21.6	73	14.3	4	11	270	0.00	29.916 
14:20	21.6	14.9	21.6	74	14.6	5	12	270	0.00	29.916 
14:25	21.6	16.1	21.6	74	14.6	4	11	270	0.00	29.916 
14:30	21.4	21.4	21.4	74	14.4	3	10	270	0.00	29.925 
14:35	21.4	15.8	21.4	75	14.7	4	10	248	0.00	29.925 
14:40	21.4	21.4	21.4	75	14.7	3	7	248	0.00	29.925 
14:45	21.4	21.4	21.4	75	14.7	3	5	270	0.00	29.934 
14:50	21.4	21.4	21.4	75	14.7	3	7	270	0.00	29.934 
14:55	21.4	15.8	21.4	75	14.7	4	10	248	0.00	29.934 
15:00	21.4	15.8	21.4	74	14.4	4	10	270	0.00	29.938 
15:05	21.4	15.8	21.4	74	14.4	4	13	270	0.00	29.938 
15:10	21.4	15.8	21.4	74	14.4	4	6	270	0.00	29.938 
15:15	21.4	15.8	21.4	74	14.4	4	12	248	0.00	29.946 
15:20	21.6	14.9	21.6	74	14.6	5	12	270	0.00	29.946 
15:25	21.6	21.6	21.6	74	14.6	3	9	248	0.00	29.946 
15:30	21.6	21.6	21.6	74	14.6	3	6	248	0.00	29.953 
15:35	21.8	21.8	21.8	75	15.1	3	9	248	0.00	29.953 
15:40	21.6	16.1	21.6	74	14.6	4	11	270	0.00	29.953 
15:45	21.6	16.1	21.6	74	14.6	4	11	270	0.00	29.964 
15:50	21.8	21.8	21.8	74	14.8	3	7	248	0.00	29.964 
15:55	21.9	21.9	21.9	74	14.9	2	6	225	0.00	29.964 
16:00	22.1	22.1	22.1	75	15.4	2	5	248	0.00	29.967 
16:05	21.9	16.4	21.9	74	14.9	4	11	248	0.00	29.967 
16:10	21.8	21.8	21.8	74	14.8	3	8	270	0.00	29.967 
16:15	21.8	21.8	21.8	74	14.8	3	6	270	0.00	29.982 
16:20	21.8	21.8	21.8	74	14.8	3	10	248	0.00	29.982 
16:25	21.8	21.8	21.8	74	14.8	3	15	248	0.00	29.982 
16:30	21.8	21.8	21.8	74	14.8	3	10	270	0.00	29.992 
16:35	21.6	16.1	21.6	74	14.6	4	9	270	0.00	29.992 
16:40	21.6	16.1	21.6	74	14.6	4	11	248	0.00	29.992 
16:45	21.4	15.8	21.4	74	14.4	4	13	270	0.00	29.998 
16:50	21.6	16.1	21.6	74	14.6	4	10	248	0.00	29.998 
16:55	21.4	21.4	21.4	75	14.7	3	11	248	0.00	29.998 
17:00	21.4	15.8	21.4	75	14.7	4	13	248	0.00	30.004 
17:05	21.4	21.4	21.4	75	14.7	2	7	270	0.00	30.004 
17:10	21.6	21.6	21.6	75	14.9	2	6	248	0.00	30.004 
17:15	21.6	21.6	21.6	75	14.9	3	7	270	0.00	30.009 
17:20	21.4	21.4	21.4	75	14.7	3	6	248	0.00	30.009 
17:25	21.4	21.4	21.4	75	14.7	2	7	248	0.00	30.009 
17:30	21.4	21.4	21.4	75	14.7	3	7	248	0.00	30.014 
17:35	21.3	21.3	21.3	75	14.6	3	8	248	0.00	30.014 
17:40	21.3	21.3	21.3	75	14.6	3	9	248	0.00	30.014 
17:45	21.3	21.3	21.3	74	14.3	3	9	270	0.00	30.009 
17:50	21.1	21.1	21.1	74	14.1	3	9	248	0.00	30.009 
17:55	21.1	21.1	21.1	75	14.4	3	9	248	0.00	30.009 
18:00	21.0	21.0	21.0	75	14.3	3	7	248	0.00	30.018 
18:05	21.0	15.4	21.0	75	14.3	4	13	270	0.00	30.018 
18:10	21.0	21.0	21.0	75	14.3	3	9	248	0.00	30.018 
18:15	20.8	20.8	20.8	75	14.1	2	5	248	0.00	30.030 
18:20	20.8	20.8	20.8	75	14.1	3	9	248	0.00	30.030 
18:25	20.8	20.8	20.8	75	14.1	3	7	248	0.00	30.030 
18:30	20.8	15.1	20.8	75	14.1	4	10	248	0.00	30.045 
18:35	20.6	14.9	20.6	74	13.7	4	12	270	0.00	30.045 
18:40	20.6	14.9	20.6	74	13.7	4	7	270	0.00	30.045 
18:45	20.6	20.6	20.6	75	14.0	2	7	248	0.00	30.049 
18:50	20.6	20.6	20.6	75	14.0	3	7	248	0.00	30.049 
18:55	20.6	20.6	20.6	75	14.0	3	6	248	0.00	30.049 
19:00	20.6	20.6	20.6	75	14.0	3	9	248	0.00	30.064 
19:05	20.6	14.9	20.6	75	14.0	4	11	248	0.00	30.064 
19:10	20.5	20.5	20.5	75	13.9	3	12	248	0.00	30.064 
19:15	20.5	20.5	20.5	75	13.9	3	13	248	0.00	30.070 
19:20	20.5	20.5	20.5	75	13.9	3	11	270	0.00	30.070 
19:25	20.5	14.8	20.5	75	13.9	4	7	248	0.00	30.070 
19:30	20.3	14.6	20.3	74	13.4	4	7	270	0.00	30.069 
19:35	20.5	20.5	20.5	75	13.9	2	5	248	0.00	30.069 
19:40	20.5	20.5	20.5	75	13.9	3	11	248	0.00	30.069 
19:45	20.3	14.6	20.3	75	13.7	4	10	248	0.00	30.071 
19:50	20.3	14.6	20.3	75	13.7	4	10	248	0.00	30.071 
19:55	20.3	20.3	20.3	75	13.7	2	6	248	0.00	30.071 
20:00	20.3	20.3	20.3	75	13.7	3	11	248	0.00	30.080 
20:05	20.2	20.2	20.2	75	13.6	3	10	270	0.00	30.080 
20:10	20.2	20.2	20.2	75	13.6	3	6	248	0.00	30.080 
20:15	20.2	20.2	20.2	75	13.6	3	6	248	0.00	30.082 
20:20	20.0	14.2	20.0	74	13.1	4	11	248	0.00	30.082 
20:25	19.9	14.1	19.9	74	13.0	4	11	248	0.00	30.082 
20:30	19.7	12.6	19.7	73	12.5	5	13	248	0.00	30.092 
20:35	19.7	19.7	19.7	73	12.5	3	9	248	0.00	30.092 
20:40	19.7	19.7	19.7	73	12.5	3	10	248	0.00	30.092 
20:45	19.5	13.6	19.5	73	12.3	4	10	270	0.00	30.094 
20:50	19.5	13.6	19.5	72	12.0	4	12	248	0.00	30.094 
20:55	19.4	13.5	19.4	72	11.9	4	11	270	0.00	30.094 
21:00	19.4	12.3	19.4	71	11.6	5	12	270	0.00	30.095 
21:05	19.4	13.5	19.4	71	11.6	4	13	248	0.00	30.095 
21:10	19.4	13.5	19.4	71	11.6	4	12	248	0.00	30.095 
21:15	19.2	11.0	19.2	70	11.0	6	13	248	0.00	30.097 
21:20	19.1	13.2	19.1	70	11.0	4	10	270	0.00	30.097 
21:25	18.9	10.6	18.9	69	10.4	6	13	270	0.00	30.097 
21:30	18.9	11.7	18.9	69	10.4	5	13	270	0.00	30.097 
21:35	18.8	11.6	18.8	69	10.3	5	14	270	0.00	30.097 
21:40	18.8	12.8	18.8	69	10.3	4	15	248	0.00	30.097 
21:45	18.8	12.8	18.8	69	10.3	4	17	248	0.00	30.094 
21:50	18.8	11.6	18.8	69	10.3	5	13	270	0.00	30.094 
21:55	18.8	12.8	18.8	69	10.3	4	9	270	0.00	30.094 
22:00	18.8	12.8	18.8	69	10.3	4	10	248	0.00	30.100 
22:05	18.8	18.8	18.8	70	10.7	3	6	270	0.00	30.100 
22:10	18.8	12.8	18.8	70	10.7	4	11	270	0.00	30.100 
22:15	18.6	12.6	18.6	69	10.2	4	9	270	0.00	30.105 
22:20	18.6	12.6	18.6	69	10.2	4	10	270	0.00	30.105 
22:25	18.6	12.6	18.6	69	10.2	4	12	248	0.00	30.105 
22:30	18.6	12.6	18.6	70	10.5	4	11	248	0.00	30.108 
22:35	18.6	12.6	18.6	70	10.5	4	8	248	0.00	30.108 
22:40	18.6	18.6	18.6	71	10.8	3	11	270	0.00	30.108 
22:45	18.6	18.6	18.6	71	10.8	3	7	270	0.00	30.103 
22:50	18.6	18.6	18.6	72	11.1	2	5	270	0.00	30.103 
22:55	18.6	18.6	18.6	73	11.4	3	9	248	0.00	30.103 
23:00	18.6	18.6	18.6	73	11.4	3	7	248	0.00	30.104 
23:05	18.6	18.6	18.6	73	11.4	2	5	270	0.00	30.104 
23:10	18.6	18.6	18.6	74	11.7	3	5	248	0.00	30.104 
23:15	18.6	12.6	18.6	74	11.7	4	10	248	0.00	30.101 
23:20	18.6	18.6	18.6	75	12.0	3	7	270	0.00	30.101 
23:25	18.6	18.6	18.6	75	12.0	3	11	248	0.00	30.101 
23:30	18.6	18.6	18.6	75	12.0	3	6	248	0.00	30.101 
23:35	18.6	12.6	18.6	76	12.3	4	7	248	0.00	30.101 
23:40	18.6	18.6	18.6	76	12.3	2	6	225	0.00	30.101 
23:45	18.6	18.6	18.6	77	12.6	2	6	248	0.00	30.094 
23:50	18.8	18.8	18.8	77	12.8	3	11	225	0.00	30.094 
23:55	18.8	18.8	18.8	78	13.1	2	6	248	0.00	30.094 

CoCoRaHS
IN-AL-39
A2 Web Hosting
Creative Commons License
GoDaddy
search engine by freefind advanced

loaded 2018-11-16 00:12:52 • last modified 2010-11-18 10:43:29
Privacy PolicyDisclaimer
• wx.awcolley.com is powered by PmWiki v.2002016 •
• all content (unless otherwise noted) © 2018 A W Colley